createdAt,value
2022-09-23T05:07:03.498Z,1021.47
2022-09-23T05:15:03.333Z,1021.61
2022-09-23T05:30:00.683Z,1021.58
2022-09-23T05:45:03.511Z,1021.61
2022-09-23T06:00:02.744Z,1021.61
2022-09-23T06:15:04.684Z,1021.61
2022-09-23T06:30:01.187Z,1021.61
2022-09-23T06:45:04.660Z,1021.71
2022-09-23T07:00:05.167Z,1021.54
2022-09-23T07:15:03.063Z,1021.44
2022-09-23T07:30:05.745Z,1021.54
2022-09-23T08:45:02.694Z,1021.14
2022-09-23T09:00:02.039Z,1020.86
2022-09-23T09:15:04.351Z,1020.59
2022-09-23T09:30:05.702Z,1020.36
2022-09-23T09:45:03.364Z,1020.15
2022-09-23T10:00:02.926Z,1019.95
2022-09-23T10:15:03.335Z,1019.78
2022-09-23T10:30:03.286Z,1019.61
2022-09-23T11:45:43.472Z,1018.56
2022-09-23T12:00:14.288Z,1018.43
2022-09-23T12:45:01.539Z,1017.71
2022-09-23T13:00:03.193Z,1017.58
2022-09-23T13:15:02.679Z,1017.44
2022-09-23T13:30:04.488Z,1017.04
2022-09-23T13:45:04.270Z,1016.94
2022-09-23T14:00:04.700Z,1016.87
2022-09-23T14:15:02.462Z,1016.66
2022-09-23T14:30:04.154Z,1016.5
2022-09-23T14:45:03.807Z,1016.36
2022-09-23T15:15:01.171Z,1016.29
2022-09-23T15:30:04.744Z,1016.19
2022-09-23T15:45:00.704Z,1016.12
2022-09-23T16:00:02.187Z,1016.06
2022-09-23T16:15:03.853Z,1016.09
2022-09-23T16:30:03.542Z,1016.06
2022-09-23T16:45:04.156Z,1016.02
2022-09-23T17:00:00.489Z,1015.95
2022-09-23T17:15:00.158Z,1016.06
2022-09-23T17:30:03.916Z,1016.16
2022-09-23T17:45:00.720Z,1016.16
2022-09-23T18:00:01.755Z,1016.19
2022-09-23T18:15:04.589Z,1016.26
2022-09-23T18:30:00.678Z,1016.36
2022-09-23T18:45:01.160Z,1016.63
2022-09-23T19:00:02.182Z,1016.73
2022-09-23T19:15:00.006Z,1016.83
2022-09-23T19:30:01.899Z,1016.87
2022-09-23T19:45:03.794Z,1016.94
2022-09-23T20:00:04.815Z,1017
2022-09-23T20:15:00.739Z,1017
2022-09-23T20:30:04.452Z,1017.04
2022-09-23T20:45:01.234Z,1016.94
2022-09-23T21:00:03.670Z,1016.97
2022-09-23T21:15:01.697Z,1016.9
2022-09-23T21:30:01.590Z,1016.97
2022-09-23T21:44:59.976Z,1016.9
2022-09-23T22:00:02.399Z,1016.94
2022-09-23T22:15:03.135Z,1016.87
2022-09-23T22:29:59.908Z,1017.04
2022-09-23T22:45:04.699Z,1017.17
2022-09-23T23:00:04.463Z,1017.21
2022-09-23T23:15:03.135Z,1017.07
2022-09-23T23:30:02.517Z,1017.07
2022-09-23T23:45:02.512Z,1016.9
